sensor_id;sensor_type;location;lat;lon;timestamp;temperature;humidity
12370;DHT22;6249;52.128;9.986;2023-02-28T00:01:05;2.30;99.90
12370;DHT22;6249;52.128;9.986;2023-02-28T00:04:25;2.30;99.90
12370;DHT22;6249;52.128;9.986;2023-02-28T00:07:47;2.30;99.90
12370;DHT22;6249;52.128;9.986;2023-02-28T00:11:10;2.20;99.90
12370;DHT22;6249;52.128;9.986;2023-02-28T00:14:33;2.00;99.90
12370;DHT22;6249;52.128;9.986;2023-02-28T00:17:54;1.90;99.90
12370;DHT22;6249;52.128;9.986;2023-02-28T00:21:15;1.80;99.90
12370;DHT22;6249;52.128;9.986;2023-02-28T00:24:36;1.70;99.90
12370;DHT22;6249;52.128;9.986;2023-02-28T00:27:59;1.70;99.90
12370;DHT22;6249;52.128;9.986;2023-02-28T00:31:20;1.60;99.90
12370;DHT22;6249;52.128;9.986;2023-02-28T00:34:40;1.50;99.90
12370;DHT22;6249;52.128;9.986;2023-02-28T00:38:03;1.40;99.90
12370;DHT22;6249;52.128;9.986;2023-02-28T00:41:23;1.30;99.90
12370;DHT22;6249;52.128;9.986;2023-02-28T00:44:44;1.30;99.90
12370;DHT22;6249;52.128;9.986;2023-02-28T00:48:05;1.20;99.90
12370;DHT22;6249;52.128;9.986;2023-02-28T00:51:26;1.00;99.90
12370;DHT22;6249;52.128;9.986;2023-02-28T00:54:47;0.80;99.90
12370;DHT22;6249;52.128;9.986;2023-02-28T00:58:07;0.70;99.90
12370;DHT22;6249;52.128;9.986;2023-02-28T01:01:28;0.60;99.90
12370;DHT22;6249;52.128;9.986;2023-02-28T01:04:48;0.50;99.90
12370;DHT22;6249;52.128;9.986;2023-02-28T01:08:12;0.30;99.90
12370;DHT22;6249;52.128;9.986;2023-02-28T01:11:36;0.50;99.90
12370;DHT22;6249;52.128;9.986;2023-02-28T01:14:57;0.40;99.90
12370;DHT22;6249;52.128;9.986;2023-02-28T01:18:18;0.30;99.90
12370;DHT22;6249;52.128;9.986;2023-02-28T01:21:39;0.20;99.90
12370;DHT22;6249;52.128;9.986;2023-02-28T01:24:59;0.00;99.90
12370;DHT22;6249;52.128;9.986;2023-02-28T01:28:20;0.00;99.90
12370;DHT22;6249;52.128;9.986;2023-02-28T01:31:40;0.00;99.90
12370;DHT22;6249;52.128;9.986;2023-02-28T01:35:01;-0.10;99.90
12370;DHT22;6249;52.128;9.986;2023-02-28T01:38:22;-0.20;99.90
12370;DHT22;6249;52.128;9.986;2023-02-28T01:41:45;-0.30;99.90
12370;DHT22;6249;52.128;9.986;2023-02-28T01:45:30;-0.30;99.90
12370;DHT22;6249;52.128;9.986;2023-02-28T01:49:04;-0.40;99.90
12370;DHT22;6249;52.128;9.986;2023-02-28T01:52:25;-0.40;99.90
12370;DHT22;6249;52.128;9.986;2023-02-28T01:55:48;-0.40;99.90
12370;DHT22;6249;52.128;9.986;2023-02-28T01:59:19;-0.50;99.90
12370;DHT22;6249;52.128;9.986;2023-02-28T02:02:46;-0.50;99.90
12370;DHT22;6249;52.128;9.986;2023-02-28T02:06:10;-0.60;99.90
12370;DHT22;6249;52.128;9.986;2023-02-28T02:09:30;-0.60;99.90
12370;DHT22;6249;52.128;9.986;2023-02-28T02:35:43;-0.70;99.90
12370;DHT22;6249;52.128;9.986;2023-02-28T02:42:44;-0.60;99.90
12370;DHT22;6249;52.128;9.986;2023-02-28T02:46:19;-0.60;99.90
12370;DHT22;6249;52.128;9.986;2023-02-28T02:49:43;-0.60;99.90
12370;DHT22;6249;52.128;9.986;2023-02-28T02:53:10;-0.60;99.90
12370;DHT22;6249;52.128;9.986;2023-02-28T02:56:33;-0.70;99.90
12370;DHT22;6249;52.128;9.986;2023-02-28T02:59:58;-0.70;99.90
12370;DHT22;6249;52.128;9.986;2023-02-28T03:03:21;-0.70;99.90
12370;DHT22;6249;52.128;9.986;2023-02-28T03:06:51;-0.60;99.90
12370;DHT22;6249;52.128;9.986;2023-02-28T03:24:25;-0.30;99.90
12370;DHT22;6249;52.128;9.986;2023-02-28T03:31:49;-0.30;99.90
12370;DHT22;6249;52.128;9.986;2023-02-28T03:35:22;-0.20;99.90
12370;DHT22;6249;52.128;9.986;2023-02-28T03:38:54;-0.30;99.90
12370;DHT22;6249;52.128;9.986;2023-02-28T03:42:24;-0.30;99.90
12370;DHT22;6249;52.128;9.986;2023-02-28T03:45:50;-0.50;99.90
12370;DHT22;6249;52.128;9.986;2023-02-28T03:49:30;-0.60;99.90
12370;DHT22;6249;52.128;9.986;2023-02-28T03:53:18;-0.70;99.90
12370;DHT22;6249;52.128;9.986;2023-02-28T03:56:51;-0.90;99.90
12370;DHT22;6249;52.128;9.986;2023-02-28T04:00:38;-1.00;99.90
12370;DHT22;6249;52.128;9.986;2023-02-28T04:04:02;-1.20;99.90
12370;DHT22;6249;52.128;9.986;2023-02-28T04:07:29;-1.20;99.90
12370;DHT22;6249;52.128;9.986;2023-02-28T04:10:56;-1.30;99.90
12370;DHT22;6249;52.128;9.986;2023-02-28T04:14:18;-1.30;99.90
12370;DHT22;6249;52.128;9.986;2023-02-28T04:17:39;-1.40;99.90
12370;DHT22;6249;52.128;9.986;2023-02-28T04:21:00;-1.40;99.90
12370;DHT22;6249;52.128;9.986;2023-02-28T04:24:23;-1.40;99.90
12370;DHT22;6249;52.128;9.986;2023-02-28T04:27:44;-1.40;99.90
12370;DHT22;6249;52.128;9.986;2023-02-28T04:31:05;-1.30;99.90
12370;DHT22;6249;52.128;9.986;2023-02-28T04:34:29;-1.30;99.90
12370;DHT22;6249;52.128;9.986;2023-02-28T04:37:50;-1.20;99.90
12370;DHT22;6249;52.128;9.986;2023-02-28T04:41:13;-0.90;99.90
12370;DHT22;6249;52.128;9.986;2023-02-28T04:44:34;-0.90;99.90
12370;DHT22;6249;52.128;9.986;2023-02-28T04:47:57;-0.80;99.90
12370;DHT22;6249;52.128;9.986;2023-02-28T04:51:18;-0.80;99.90
12370;DHT22;6249;52.128;9.986;2023-02-28T04:54:41;-0.60;99.90
12370;DHT22;6249;52.128;9.986;2023-02-28T04:58:02;-0.60;99.90
12370;DHT22;6249;52.128;9.986;2023-02-28T05:01:28;-0.40;99.90
12370;DHT22;6249;52.128;9.986;2023-02-28T05:04:49;-0.40;99.90
12370;DHT22;6249;52.128;9.986;2023-02-28T05:08:10;-0.40;99.90
12370;DHT22;6249;52.128;9.986;2023-02-28T05:11:35;-0.40;99.90
12370;DHT22;6249;52.128;9.986;2023-02-28T05:14:58;-0.40;99.90
12370;DHT22;6249;52.128;9.986;2023-02-28T05:18:19;-0.50;99.90
12370;DHT22;6249;52.128;9.986;2023-02-28T05:21:51;-0.60;99.90
12370;DHT22;6249;52.128;9.986;2023-02-28T05:25:17;-0.60;99.90
12370;DHT22;6249;52.128;9.986;2023-02-28T05:28:40;-0.70;99.90
12370;DHT22;6249;52.128;9.986;2023-02-28T05:32:01;-0.70;99.90
12370;DHT22;6249;52.128;9.986;2023-02-28T05:35:21;-0.90;99.90
12370;DHT22;6249;52.128;9.986;2023-02-28T05:38:44;-0.90;99.90
12370;DHT22;6249;52.128;9.986;2023-02-28T05:42:05;-1.00;99.90
12370;DHT22;6249;52.128;9.986;2023-02-28T05:45:29;-1.20;99.90
12370;DHT22;6249;52.128;9.986;2023-02-28T05:48:52;-1.30;99.90
12370;DHT22;6249;52.128;9.986;2023-02-28T05:52:16;-1.30;99.90
12370;DHT22;6249;52.128;9.986;2023-02-28T05:55:37;-1.30;99.90
12370;DHT22;6249;52.128;9.986;2023-02-28T05:58:58;-1.40;99.90
12370;DHT22;6249;52.128;9.986;2023-02-28T06:02:21;-1.40;99.90
12370;DHT22;6249;52.128;9.986;2023-02-28T06:05:41;-1.50;99.90
12370;DHT22;6249;52.128;9.986;2023-02-28T06:09:03;-1.40;99.90
12370;DHT22;6249;52.128;9.986;2023-02-28T06:12:27;-1.50;99.90
12370;DHT22;6249;52.128;9.986;2023-02-28T06:15:48;-1.60;99.90
12370;DHT22;6249;52.128;9.986;2023-02-28T06:19:11;-1.60;99.90
12370;DHT22;6249;52.128;9.986;2023-02-28T06:22:34;-1.60;99.90
12370;DHT22;6249;52.128;9.986;2023-02-28T06:25:58;-1.40;99.90
12370;DHT22;6249;52.128;9.986;2023-02-28T06:29:18;-1.30;99.90
12370;DHT22;6249;52.128;9.986;2023-02-28T06:32:39;-1.40;99.90
12370;DHT22;6249;52.128;9.986;2023-02-28T06:36:02;-1.40;99.90
12370;DHT22;6249;52.128;9.986;2023-02-28T06:39:23;-1.40;99.90
12370;DHT22;6249;52.128;9.986;2023-02-28T06:42:44;-1.40;99.90
12370;DHT22;6249;52.128;9.986;2023-02-28T06:46:06;-1.30;99.90
12370;DHT22;6249;52.128;9.986;2023-02-28T06:49:27;-1.20;99.90
12370;DHT22;6249;52.128;9.986;2023-02-28T06:52:48;-1.10;99.90
12370;DHT22;6249;52.128;9.986;2023-02-28T06:56:11;-1.00;99.90
12370;DHT22;6249;52.128;9.986;2023-02-28T06:59:32;-0.90;99.90
12370;DHT22;6249;52.128;9.986;2023-02-28T07:02:55;-0.80;99.90
12370;DHT22;6249;52.128;9.986;2023-02-28T07:06:18;-0.80;99.90
12370;DHT22;6249;52.128;9.986;2023-02-28T07:09:39;-0.70;99.90
12370;DHT22;6249;52.128;9.986;2023-02-28T07:13:00;-0.60;99.90
12370;DHT22;6249;52.128;9.986;2023-02-28T07:16:22;-0.50;99.90
12370;DHT22;6249;52.128;9.986;2023-02-28T07:19:44;-0.30;99.90
12370;DHT22;6249;52.128;9.986;2023-02-28T07:23:05;-0.10;99.90
12370;DHT22;6249;52.128;9.986;2023-02-28T07:26:26;0.00;99.90
12370;DHT22;6249;52.128;9.986;2023-02-28T07:29:46;0.10;99.90
12370;DHT22;6249;52.128;9.986;2023-02-28T07:33:09;0.10;99.90
12370;DHT22;6249;52.128;9.986;2023-02-28T07:36:30;0.10;99.90
12370;DHT22;6249;52.128;9.986;2023-02-28T07:39:51;0.10;99.90
12370;DHT22;6249;52.128;9.986;2023-02-28T07:43:14;0.00;99.90
12370;DHT22;6249;52.128;9.986;2023-02-28T07:46:37;0.00;99.90
12370;DHT22;6249;52.128;9.986;2023-02-28T07:49:57;0.00;99.90
12370;DHT22;6249;52.128;9.986;2023-02-28T07:53:18;0.10;99.90
12370;DHT22;6249;52.128;9.986;2023-02-28T07:56:39;0.20;99.90
12370;DHT22;6249;52.128;9.986;2023-02-28T07:59:59;0.40;99.90
12370;DHT22;6249;52.128;9.986;2023-02-28T08:03:21;0.50;99.90
12370;DHT22;6249;52.128;9.986;2023-02-28T08:06:42;0.70;99.90
12370;DHT22;6249;52.128;9.986;2023-02-28T08:10:03;0.80;99.90
12370;DHT22;6249;52.128;9.986;2023-02-28T08:13:26;1.00;99.90
12370;DHT22;6249;52.128;9.986;2023-02-28T08:16:49;1.10;99.90
12370;DHT22;6249;52.128;9.986;2023-02-28T08:20:10;1.40;99.90
12370;DHT22;6249;52.128;9.986;2023-02-28T08:23:31;1.70;99.90
12370;DHT22;6249;52.128;9.986;2023-02-28T08:26:54;2.10;99.90
12370;DHT22;6249;52.128;9.986;2023-02-28T08:30:16;2.50;99.90
12370;DHT22;6249;52.128;9.986;2023-02-28T08:33:37;2.90;99.90
12370;DHT22;6249;52.128;9.986;2023-02-28T08:36:59;3.10;99.90
12370;DHT22;6249;52.128;9.986;2023-02-28T08:40:19;3.30;99.90
12370;DHT22;6249;52.128;9.986;2023-02-28T08:43:40;3.50;99.90
12370;DHT22;6249;52.128;9.986;2023-02-28T08:47:01;3.50;99.90
12370;DHT22;6249;52.128;9.986;2023-02-28T08:50:24;3.60;99.90
12370;DHT22;6249;52.128;9.986;2023-02-28T08:53:45;3.70;99.90
12370;DHT22;6249;52.128;9.986;2023-02-28T08:57:06;4.00;99.90
12370;DHT22;6249;52.128;9.986;2023-02-28T09:00:29;4.20;99.90
12370;DHT22;6249;52.128;9.986;2023-02-28T09:03:50;4.50;99.90
12370;DHT22;6249;52.128;9.986;2023-02-28T09:07:11;4.80;99.90
12370;DHT22;6249;52.128;9.986;2023-02-28T09:10:34;4.60;99.90
12370;DHT22;6249;52.128;9.986;2023-02-28T09:13:55;4.50;99.90
12370;DHT22;6249;52.128;9.986;2023-02-28T09:17:16;4.70;99.90
12370;DHT22;6249;52.128;9.986;2023-02-28T09:20:41;4.90;99.90
12370;DHT22;6249;52.128;9.986;2023-02-28T09:24:02;5.30;99.90
12370;DHT22;6249;52.128;9.986;2023-02-28T09:27:22;5.80;99.90
12370;DHT22;6249;52.128;9.986;2023-02-28T09:30:49;6.10;99.50
12370;DHT22;6249;52.128;9.986;2023-02-28T09:34:12;6.20;98.80
12370;DHT22;6249;52.128;9.986;2023-02-28T09:37:32;6.80;97.90
12370;DHT22;6249;52.128;9.986;2023-02-28T09:41:03;6.90;96.90
12370;DHT22;6249;52.128;9.986;2023-02-28T09:44:44;7.00;97.20
12370;DHT22;6249;52.128;9.986;2023-02-28T09:48:23;7.50;96.90
12370;DHT22;6249;52.128;9.986;2023-02-28T09:51:56;8.10;95.60
12370;DHT22;6249;52.128;9.986;2023-02-28T09:55:42;8.20;94.70
12370;DHT22;6249;52.128;9.986;2023-02-28T09:59:25;8.30;94.30
12370;DHT22;6249;52.128;9.986;2023-02-28T10:06:28;8.50;93.90
12370;DHT22;6249;52.128;9.986;2023-02-28T10:09:55;8.80;93.40
12370;DHT22;6249;52.128;9.986;2023-02-28T10:20:24;9.80;91.50
12370;DHT22;6249;52.128;9.986;2023-02-28T10:23:56;10.10;90.70
12370;DHT22;6249;52.128;9.986;2023-02-28T10:30:45;11.30;88.70
12370;DHT22;6249;52.128;9.986;2023-02-28T10:34:10;11.50;83.70
12370;DHT22;6249;52.128;9.986;2023-02-28T10:37:33;12.00;82.40
12370;DHT22;6249;52.128;9.986;2023-02-28T10:44:31;12.50;79.20
12370;DHT22;6249;52.128;9.986;2023-02-28T10:48:24;13.20;79.70
12370;DHT22;6249;52.128;9.986;2023-02-28T10:51:52;13.90;77.10
12370;DHT22;6249;52.128;9.986;2023-02-28T10:55:23;14.50;69.80
12370;DHT22;6249;52.128;9.986;2023-02-28T10:59:11;13.90;64.30
12370;DHT22;6249;52.128;9.986;2023-02-28T11:02:43;13.80;68.80
12370;DHT22;6249;52.128;9.986;2023-02-28T11:06:31;14.40;62.10
12370;DHT22;6249;52.128;9.986;2023-02-28T11:09:56;14.50;61.60
12370;DHT22;6249;52.128;9.986;2023-02-28T11:13:24;14.70;61.00
12370;DHT22;6249;52.128;9.986;2023-02-28T11:16:48;14.40;62.50
12370;DHT22;6249;52.128;9.986;2023-02-28T11:20:20;14.60;60.30
12370;DHT22;6249;52.128;9.986;2023-02-28T11:23:45;14.10;59.70
12370;DHT22;6249;52.128;9.986;2023-02-28T11:34:37;13.20;59.00
12370;DHT22;6249;52.128;9.986;2023-02-28T11:37:58;12.80;58.60
12370;DHT22;6249;52.128;9.986;2023-02-28T11:49:27;12.90;59.20
12370;DHT22;6249;52.128;9.986;2023-02-28T11:52:57;14.20;56.80
12370;DHT22;6249;52.128;9.986;2023-02-28T11:56:25;15.40;51.90
12370;DHT22;6249;52.128;9.986;2023-02-28T12:00:06;15.50;49.20
12370;DHT22;6249;52.128;9.986;2023-02-28T12:04:04;15.80;48.30
12370;DHT22;6249;52.128;9.986;2023-02-28T12:07:55;15.00;48.50
12370;DHT22;6249;52.128;9.986;2023-02-28T12:15:12;16.80;45.90
12370;DHT22;6249;52.128;9.986;2023-02-28T12:32:55;19.70;39.60
12370;DHT22;6249;52.128;9.986;2023-02-28T12:36:19;20.10;37.60
12370;DHT22;6249;52.128;9.986;2023-02-28T12:39:46;20.20;37.70
12370;DHT22;6249;52.128;9.986;2023-02-28T12:43:10;20.60;36.60
12370;DHT22;6249;52.128;9.986;2023-02-28T12:46:44;21.00;36.00
12370;DHT22;6249;52.128;9.986;2023-02-28T12:50:10;21.50;35.30
12370;DHT22;6249;52.128;9.986;2023-02-28T12:57:19;21.60;33.60
12370;DHT22;6249;52.128;9.986;2023-02-28T13:11:47;22.10;31.60
12370;DHT22;6249;52.128;9.986;2023-02-28T13:15:16;22.70;31.40
12370;DHT22;6249;52.128;9.986;2023-02-28T13:18:46;22.90;31.00
12370;DHT22;6249;52.128;9.986;2023-02-28T13:32:34;20.50;30.60
12370;DHT22;6249;52.128;9.986;2023-02-28T13:42:54;20.30;30.80
12370;DHT22;6249;52.128;9.986;2023-02-28T13:46:17;19.70;31.30
12370;DHT22;6249;52.128;9.986;2023-02-28T13:49:40;19.80;31.70
12370;DHT22;6249;52.128;9.986;2023-02-28T13:56:49;21.30;31.60
12370;DHT22;6249;52.128;9.986;2023-02-28T14:00:28;21.30;30.40
12370;DHT22;6249;52.128;9.986;2023-02-28T14:03:58;21.10;30.00
12370;DHT22;6249;52.128;9.986;2023-02-28T14:07:28;21.90;31.00
12370;DHT22;6249;52.128;9.986;2023-02-28T14:11:03;22.20;31.30
12370;DHT22;6249;52.128;9.986;2023-02-28T14:17:57;23.90;30.50
12370;DHT22;6249;52.128;9.986;2023-02-28T14:21:23;24.20;29.80
12370;DHT22;6249;52.128;9.986;2023-02-28T14:39:24;23.40;29.80
12370;DHT22;6249;52.128;9.986;2023-02-28T14:43:03;23.60;29.50
12370;DHT22;6249;52.128;9.986;2023-02-28T14:46:36;23.80;28.60
12370;DHT22;6249;52.128;9.986;2023-02-28T14:49:58;23.40;28.10
12370;DHT22;6249;52.128;9.986;2023-02-28T14:53:21;23.60;28.40
12370;DHT22;6249;52.128;9.986;2023-02-28T14:56:42;23.60;28.40
12370;DHT22;6249;52.128;9.986;2023-02-28T15:03:39;23.40;28.50
12370;DHT22;6249;52.128;9.986;2023-02-28T15:07:13;22.90;28.80
12370;DHT22;6249;52.128;9.986;2023-02-28T15:10:36;22.70;29.30
12370;DHT22;6249;52.128;9.986;2023-02-28T15:13:57;23.30;29.30
12370;DHT22;6249;52.128;9.986;2023-02-28T15:17:22;23.70;28.50
12370;DHT22;6249;52.128;9.986;2023-02-28T15:20:45;24.10;27.90
12370;DHT22;6249;52.128;9.986;2023-02-28T15:24:27;23.70;27.40
12370;DHT22;6249;52.128;9.986;2023-02-28T15:27:55;23.30;28.10
12370;DHT22;6249;52.128;9.986;2023-02-28T15:31:25;23.10;28.80
12370;DHT22;6249;52.128;9.986;2023-02-28T15:34:48;23.50;29.30
12370;DHT22;6249;52.128;9.986;2023-02-28T15:41:38;23.40;28.20
12370;DHT22;6249;52.128;9.986;2023-02-28T15:45:01;23.20;28.80
12370;DHT22;6249;52.128;9.986;2023-02-28T15:48:24;22.90;27.90
12370;DHT22;6249;52.128;9.986;2023-02-28T15:51:49;22.10;28.50
12370;DHT22;6249;52.128;9.986;2023-02-28T15:55:21;21.30;28.30
12370;DHT22;6249;52.128;9.986;2023-02-28T15:58:44;21.10;28.90
12370;DHT22;6249;52.128;9.986;2023-02-28T16:02:31;21.00;29.70
12370;DHT22;6249;52.128;9.986;2023-02-28T16:09:50;20.40;29.40
12370;DHT22;6249;52.128;9.986;2023-02-28T16:13:14;20.00;30.40
12370;DHT22;6249;52.128;9.986;2023-02-28T16:16:42;20.10;30.50
12370;DHT22;6249;52.128;9.986;2023-02-28T16:20:14;20.30;30.20
12370;DHT22;6249;52.128;9.986;2023-02-28T16:23:35;20.10;30.30
12370;DHT22;6249;52.128;9.986;2023-02-28T16:26:58;19.40;31.40
12370;DHT22;6249;52.128;9.986;2023-02-28T16:30:25;18.70;31.30
12370;DHT22;6249;52.128;9.986;2023-02-28T16:33:49;18.00;31.20
12370;DHT22;6249;52.128;9.986;2023-02-28T16:37:16;17.80;32.00
12370;DHT22;6249;52.128;9.986;2023-02-28T16:40:40;17.20;32.20
12370;DHT22;6249;52.128;9.986;2023-02-28T16:44:14;16.40;32.10
12370;DHT22;6249;52.128;9.986;2023-02-28T16:47:41;15.20;33.20
12370;DHT22;6249;52.128;9.986;2023-02-28T16:51:01;14.00;35.30
12370;DHT22;6249;52.128;9.986;2023-02-28T16:54:24;13.10;37.90
12370;DHT22;6249;52.128;9.986;2023-02-28T16:57:49;12.40;38.50
12370;DHT22;6249;52.128;9.986;2023-02-28T17:01:11;11.70;40.00
12370;DHT22;6249;52.128;9.986;2023-02-28T17:04:37;11.10;41.40
12370;DHT22;6249;52.128;9.986;2023-02-28T17:07:57;10.70;43.10
12370;DHT22;6249;52.128;9.986;2023-02-28T17:11:19;10.10;45.30
12370;DHT22;6249;52.128;9.986;2023-02-28T17:14:42;9.70;47.70
12370;DHT22;6249;52.128;9.986;2023-02-28T17:18:06;9.50;49.00
12370;DHT22;6249;52.128;9.986;2023-02-28T17:21:28;9.20;50.60
12370;DHT22;6249;52.128;9.986;2023-02-28T17:24:48;8.80;53.80
12370;DHT22;6249;52.128;9.986;2023-02-28T17:28:09;8.50;54.40
12370;DHT22;6249;52.128;9.986;2023-02-28T17:31:30;8.30;55.70
12370;DHT22;6249;52.128;9.986;2023-02-28T17:34:53;8.10;56.50
12370;DHT22;6249;52.128;9.986;2023-02-28T17:38:18;7.90;57.60
12370;DHT22;6249;52.128;9.986;2023-02-28T17:41:43;7.70;58.70
12370;DHT22;6249;52.128;9.986;2023-02-28T17:45:06;7.60;60.00
12370;DHT22;6249;52.128;9.986;2023-02-28T17:48:26;7.40;60.90
12370;DHT22;6249;52.128;9.986;2023-02-28T17:51:50;7.20;62.50
12370;DHT22;6249;52.128;9.986;2023-02-28T17:55:13;7.00;64.60
12370;DHT22;6249;52.128;9.986;2023-02-28T17:58:36;6.80;66.30
12370;DHT22;6249;52.128;9.986;2023-02-28T18:02:00;6.60;68.00
12370;DHT22;6249;52.128;9.986;2023-02-28T18:05:23;6.50;70.50
12370;DHT22;6249;52.128;9.986;2023-02-28T18:08:44;6.40;71.50
12370;DHT22;6249;52.128;9.986;2023-02-28T18:12:10;6.30;72.70
12370;DHT22;6249;52.128;9.986;2023-02-28T18:15:31;6.10;74.20
12370;DHT22;6249;52.128;9.986;2023-02-28T18:18:56;6.10;75.50
12370;DHT22;6249;52.128;9.986;2023-02-28T18:22:19;6.00;75.00
12370;DHT22;6249;52.128;9.986;2023-02-28T18:25:40;5.90;74.80
12370;DHT22;6249;52.128;9.986;2023-02-28T18:29:03;5.90;76.50
12370;DHT22;6249;52.128;9.986;2023-02-28T18:32:24;5.70;77.60
12370;DHT22;6249;52.128;9.986;2023-02-28T18:35:45;5.50;79.00
12370;DHT22;6249;52.128;9.986;2023-02-28T18:39:08;5.40;79.80
12370;DHT22;6249;52.128;9.986;2023-02-28T18:42:33;5.30;81.30
12370;DHT22;6249;52.128;9.986;2023-02-28T18:45:57;5.10;83.90
12370;DHT22;6249;52.128;9.986;2023-02-28T18:49:22;5.00;84.10
12370;DHT22;6249;52.128;9.986;2023-02-28T18:52:43;4.80;86.70
12370;DHT22;6249;52.128;9.986;2023-02-28T18:56:07;4.60;89.70
12370;DHT22;6249;52.128;9.986;2023-02-28T18:59:30;4.60;90.50
12370;DHT22;6249;52.128;9.986;2023-02-28T19:02:54;4.60;91.10
12370;DHT22;6249;52.128;9.986;2023-02-28T19:06:15;4.40;91.20
12370;DHT22;6249;52.128;9.986;2023-02-28T19:09:38;4.30;91.60
12370;DHT22;6249;52.128;9.986;2023-02-28T19:13:03;4.00;93.00
12370;DHT22;6249;52.128;9.986;2023-02-28T19:16:25;3.90;94.60
12370;DHT22;6249;52.128;9.986;2023-02-28T19:19:46;3.80;95.40
12370;DHT22;6249;52.128;9.986;2023-02-28T19:23:11;3.70;96.10
12370;DHT22;6249;52.128;9.986;2023-02-28T19:26:34;3.70;96.90
12370;DHT22;6249;52.128;9.986;2023-02-28T19:29:57;3.60;97.10
12370;DHT22;6249;52.128;9.986;2023-02-28T19:33:21;3.60;97.50
12370;DHT22;6249;52.128;9.986;2023-02-28T19:36:44;3.50;97.60
12370;DHT22;6249;52.128;9.986;2023-02-28T19:40:06;3.30;98.20
12370;DHT22;6249;52.128;9.986;2023-02-28T19:43:30;3.20;98.90
12370;DHT22;6249;52.128;9.986;2023-02-28T19:46:50;3.10;99.20
12370;DHT22;6249;52.128;9.986;2023-02-28T19:50:12;3.00;99.60
12370;DHT22;6249;52.128;9.986;2023-02-28T19:53:34;3.00;99.90
12370;DHT22;6249;52.128;9.986;2023-02-28T19:56:57;2.90;99.90
12370;DHT22;6249;52.128;9.986;2023-02-28T20:00:18;2.80;99.90
12370;DHT22;6249;52.128;9.986;2023-02-28T20:03:39;2.80;99.90
12370;DHT22;6249;52.128;9.986;2023-02-28T20:07:00;2.70;99.90
12370;DHT22;6249;52.128;9.986;2023-02-28T20:10:21;2.60;99.90
12370;DHT22;6249;52.128;9.986;2023-02-28T20:13:42;2.60;99.90
12370;DHT22;6249;52.128;9.986;2023-02-28T20:17:08;2.50;99.90
12370;DHT22;6249;52.128;9.986;2023-02-28T20:20:28;2.50;99.90
12370;DHT22;6249;52.128;9.986;2023-02-28T20:23:58;2.30;99.90
12370;DHT22;6249;52.128;9.986;2023-02-28T20:27:21;2.30;99.90
12370;DHT22;6249;52.128;9.986;2023-02-28T20:30:41;2.10;99.90
12370;DHT22;6249;52.128;9.986;2023-02-28T20:34:03;1.90;99.90
12370;DHT22;6249;52.128;9.986;2023-02-28T20:37:24;1.80;99.90
12370;DHT22;6249;52.128;9.986;2023-02-28T20:40:47;1.80;99.90
12370;DHT22;6249;52.128;9.986;2023-02-28T20:44:11;1.80;99.90
12370;DHT22;6249;52.128;9.986;2023-02-28T20:47:32;1.80;99.90
12370;DHT22;6249;52.128;9.986;2023-02-28T20:50:56;1.70;99.90
12370;DHT22;6249;52.128;9.986;2023-02-28T20:54:17;1.70;99.90
12370;DHT22;6249;52.128;9.986;2023-02-28T20:57:40;1.60;99.90
12370;DHT22;6249;52.128;9.986;2023-02-28T21:04:32;1.50;99.90
12370;DHT22;6249;52.128;9.986;2023-02-28T21:07:52;1.40;99.90
12370;DHT22;6249;52.128;9.986;2023-02-28T21:11:18;1.40;99.90
12370;DHT22;6249;52.128;9.986;2023-02-28T21:14:44;1.60;99.90
12370;DHT22;6249;52.128;9.986;2023-02-28T21:18:09;1.30;99.90
12370;DHT22;6249;52.128;9.986;2023-02-28T21:21:32;1.30;99.90
12370;DHT22;6249;52.128;9.986;2023-02-28T21:24:53;1.40;99.90
12370;DHT22;6249;52.128;9.986;2023-02-28T21:28:16;1.50;99.90
12370;DHT22;6249;52.128;9.986;2023-02-28T21:31:37;1.60;99.90
12370;DHT22;6249;52.128;9.986;2023-02-28T21:35:00;1.50;99.90
12370;DHT22;6249;52.128;9.986;2023-02-28T21:38:20;1.40;99.90
12370;DHT22;6249;52.128;9.986;2023-02-28T21:41:41;1.30;99.90
12370;DHT22;6249;52.128;9.986;2023-02-28T21:45:02;1.10;99.90
12370;DHT22;6249;52.128;9.986;2023-02-28T21:48:22;0.80;99.90
12370;DHT22;6249;52.128;9.986;2023-02-28T21:51:45;0.70;99.90
12370;DHT22;6249;52.128;9.986;2023-02-28T21:55:09;0.70;99.90
12370;DHT22;6249;52.128;9.986;2023-02-28T21:58:32;0.60;99.90
12370;DHT22;6249;52.128;9.986;2023-02-28T22:01:55;0.50;99.90
12370;DHT22;6249;52.128;9.986;2023-02-28T22:05:15;0.60;99.90
12370;DHT22;6249;52.128;9.986;2023-02-28T22:08:36;0.50;99.90
12370;DHT22;6249;52.128;9.986;2023-02-28T22:12:01;0.40;99.90
12370;DHT22;6249;52.128;9.986;2023-02-28T22:15:22;0.30;99.90
12370;DHT22;6249;52.128;9.986;2023-02-28T22:18:45;0.30;99.90
12370;DHT22;6249;52.128;9.986;2023-02-28T22:22:08;0.30;99.90
12370;DHT22;6249;52.128;9.986;2023-02-28T22:25:29;0.20;99.90
12370;DHT22;6249;52.128;9.986;2023-02-28T22:28:49;0.20;99.90
12370;DHT22;6249;52.128;9.986;2023-02-28T22:32:10;0.10;99.90
12370;DHT22;6249;52.128;9.986;2023-02-28T22:35:31;0.10;99.90
12370;DHT22;6249;52.128;9.986;2023-02-28T22:38:51;0.10;99.90
12370;DHT22;6249;52.128;9.986;2023-02-28T22:42:17;0.10;99.90
12370;DHT22;6249;52.128;9.986;2023-02-28T22:45:39;0.10;99.90
12370;DHT22;6249;52.128;9.986;2023-02-28T22:49:02;0.10;99.90
12370;DHT22;6249;52.128;9.986;2023-02-28T22:52:23;0.20;99.90
12370;DHT22;6249;52.128;9.986;2023-02-28T22:55:53;0.10;99.90
12370;DHT22;6249;52.128;9.986;2023-02-28T22:59:14;0.00;99.90
12370;DHT22;6249;52.128;9.986;2023-02-28T23:02:37;-0.20;99.90
12370;DHT22;6249;52.128;9.986;2023-02-28T23:05:58;-0.30;99.90
12370;DHT22;6249;52.128;9.986;2023-02-28T23:09:21;-0.40;99.90
12370;DHT22;6249;52.128;9.986;2023-02-28T23:12:42;-0.40;99.90
12370;DHT22;6249;52.128;9.986;2023-02-28T23:16:12;-0.40;99.90
12370;DHT22;6249;52.128;9.986;2023-02-28T23:19:33;-0.50;99.90
12370;DHT22;6249;52.128;9.986;2023-02-28T23:22:53;-0.50;99.90
12370;DHT22;6249;52.128;9.986;2023-02-28T23:26:14;-0.60;99.90
12370;DHT22;6249;52.128;9.986;2023-02-28T23:29:35;-0.60;99.90
12370;DHT22;6249;52.128;9.986;2023-02-28T23:32:58;-0.70;99.90
12370;DHT22;6249;52.128;9.986;2023-02-28T23:36:18;-0.60;99.90
12370;DHT22;6249;52.128;9.986;2023-02-28T23:39:39;-0.60;99.90
12370;DHT22;6249;52.128;9.986;2023-02-28T23:43:03;-0.60;99.90
12370;DHT22;6249;52.128;9.986;2023-02-28T23:46:23;-0.70;99.90
12370;DHT22;6249;52.128;9.986;2023-02-28T23:49:44;-0.80;99.90
12370;DHT22;6249;52.128;9.986;2023-02-28T23:53:07;-0.90;99.90
12370;DHT22;6249;52.128;9.986;2023-02-28T23:56:28;-1.00;99.90
12370;DHT22;6249;52.128;9.986;2023-02-28T23:59:51;-1.00;99.90
